sensor_id;sensor_type;location;lat;lon;timestamp;temperature;humidity
34877;DHT22;21086;44.780;17.194;2023-07-13T00:01:55;24.40;99.90
34877;DHT22;21086;44.780;17.194;2023-07-13T00:04:24;24.30;99.90
34877;DHT22;21086;44.780;17.194;2023-07-13T00:06:56;24.30;99.90
34877;DHT22;21086;44.780;17.194;2023-07-13T00:09:24;24.30;99.90
34877;DHT22;21086;44.780;17.194;2023-07-13T00:11:55;24.30;99.90
34877;DHT22;21086;44.780;17.194;2023-07-13T00:14:23;24.30;99.90
34877;DHT22;21086;44.780;17.194;2023-07-13T00:16:51;24.30;99.90
34877;DHT22;21086;44.780;17.194;2023-07-13T00:19:19;24.20;99.90
34877;DHT22;21086;44.780;17.194;2023-07-13T00:21:46;24.10;99.90
34877;DHT22;21086;44.780;17.194;2023-07-13T00:24:16;24.20;99.90
34877;DHT22;21086;44.780;17.194;2023-07-13T00:26:49;24.10;99.90
34877;DHT22;21086;44.780;17.194;2023-07-13T00:29:16;24.10;99.90
34877;DHT22;21086;44.780;17.194;2023-07-13T00:31:43;24.00;99.90
34877;DHT22;21086;44.780;17.194;2023-07-13T00:34:10;24.00;99.90
34877;DHT22;21086;44.780;17.194;2023-07-13T00:36:37;24.00;99.90
34877;DHT22;21086;44.780;17.194;2023-07-13T00:39:04;23.90;99.90
34877;DHT22;21086;44.780;17.194;2023-07-13T00:41:32;23.80;99.90
34877;DHT22;21086;44.780;17.194;2023-07-13T00:43:59;23.80;99.90
34877;DHT22;21086;44.780;17.194;2023-07-13T00:46:30;23.80;99.90
34877;DHT22;21086;44.780;17.194;2023-07-13T00:49:02;23.70;99.90
34877;DHT22;21086;44.780;17.194;2023-07-13T00:51:40;23.60;99.90
34877;DHT22;21086;44.780;17.194;2023-07-13T00:54:13;23.60;99.90
34877;DHT22;21086;44.780;17.194;2023-07-13T00:56:50;23.70;99.90
34877;DHT22;21086;44.780;17.194;2023-07-13T01:00:05;23.60;99.90
34877;DHT22;21086;44.780;17.194;2023-07-13T01:02:38;23.60;99.90
34877;DHT22;21086;44.780;17.194;2023-07-13T01:05:10;23.60;99.90
34877;DHT22;21086;44.780;17.194;2023-07-13T01:07:38;23.50;99.90
34877;DHT22;21086;44.780;17.194;2023-07-13T01:10:06;23.60;99.90
34877;DHT22;21086;44.780;17.194;2023-07-13T01:12:33;23.60;99.90
34877;DHT22;21086;44.780;17.194;2023-07-13T01:15:02;23.60;99.90
34877;DHT22;21086;44.780;17.194;2023-07-13T01:17:29;23.60;99.90
34877;DHT22;21086;44.780;17.194;2023-07-13T01:19:57;23.60;99.90
34877;DHT22;21086;44.780;17.194;2023-07-13T01:22:24;23.50;99.90
34877;DHT22;21086;44.780;17.194;2023-07-13T01:24:54;23.50;99.90
34877;DHT22;21086;44.780;17.194;2023-07-13T01:27:24;23.50;99.90
34877;DHT22;21086;44.780;17.194;2023-07-13T01:29:53;23.50;99.90
34877;DHT22;21086;44.780;17.194;2023-07-13T01:32:23;23.40;99.90
34877;DHT22;21086;44.780;17.194;2023-07-13T01:34:52;23.40;99.90
34877;DHT22;21086;44.780;17.194;2023-07-13T01:37:25;23.40;99.90
34877;DHT22;21086;44.780;17.194;2023-07-13T01:39:52;23.50;99.90
34877;DHT22;21086;44.780;17.194;2023-07-13T01:42:20;23.40;99.90
34877;DHT22;21086;44.780;17.194;2023-07-13T01:44:47;23.30;99.90
34877;DHT22;21086;44.780;17.194;2023-07-13T01:47:14;23.20;99.90
34877;DHT22;21086;44.780;17.194;2023-07-13T01:49:40;23.00;99.90
34877;DHT22;21086;44.780;17.194;2023-07-13T01:52:08;23.00;99.90
34877;DHT22;21086;44.780;17.194;2023-07-13T01:54:35;23.00;99.90
34877;DHT22;21086;44.780;17.194;2023-07-13T01:57:02;23.00;99.90
34877;DHT22;21086;44.780;17.194;2023-07-13T01:59:30;23.00;99.90
34877;DHT22;21086;44.780;17.194;2023-07-13T02:01:59;23.00;99.90
34877;DHT22;21086;44.780;17.194;2023-07-13T02:04:26;22.90;99.90
34877;DHT22;21086;44.780;17.194;2023-07-13T02:06:54;23.00;99.90
34877;DHT22;21086;44.780;17.194;2023-07-13T02:09:22;23.00;99.90
34877;DHT22;21086;44.780;17.194;2023-07-13T02:11:49;23.10;99.90
34877;DHT22;21086;44.780;17.194;2023-07-13T02:14:16;23.20;99.90
34877;DHT22;21086;44.780;17.194;2023-07-13T02:16:43;23.40;99.90
34877;DHT22;21086;44.780;17.194;2023-07-13T02:19:10;23.60;99.90
34877;DHT22;21086;44.780;17.194;2023-07-13T02:21:39;23.70;99.90
34877;DHT22;21086;44.780;17.194;2023-07-13T02:24:06;23.70;99.90
34877;DHT22;21086;44.780;17.194;2023-07-13T02:26:33;23.70;99.90
34877;DHT22;21086;44.780;17.194;2023-07-13T02:29:00;23.60;99.90
34877;DHT22;21086;44.780;17.194;2023-07-13T02:31:27;23.60;99.90
34877;DHT22;21086;44.780;17.194;2023-07-13T02:33:54;23.50;99.90
34877;DHT22;21086;44.780;17.194;2023-07-13T02:36:21;23.40;99.90
34877;DHT22;21086;44.780;17.194;2023-07-13T02:38:49;23.40;99.90
34877;DHT22;21086;44.780;17.194;2023-07-13T02:41:16;23.40;99.90
34877;DHT22;21086;44.780;17.194;2023-07-13T02:43:44;23.30;99.90
34877;DHT22;21086;44.780;17.194;2023-07-13T02:46:11;23.20;99.90
34877;DHT22;21086;44.780;17.194;2023-07-13T02:48:39;23.20;99.90
34877;DHT22;21086;44.780;17.194;2023-07-13T02:51:07;23.20;99.90
34877;DHT22;21086;44.780;17.194;2023-07-13T02:53:35;23.10;99.90
34877;DHT22;21086;44.780;17.194;2023-07-13T02:56:04;23.00;99.90
34877;DHT22;21086;44.780;17.194;2023-07-13T02:58:32;22.90;99.90
34877;DHT22;21086;44.780;17.194;2023-07-13T03:00:59;22.80;99.90
34877;DHT22;21086;44.780;17.194;2023-07-13T03:03:26;22.90;99.90
34877;DHT22;21086;44.780;17.194;2023-07-13T03:06:00;22.80;99.90
34877;DHT22;21086;44.780;17.194;2023-07-13T03:08:27;22.80;99.90
34877;DHT22;21086;44.780;17.194;2023-07-13T03:11:06;22.80;99.90
34877;DHT22;21086;44.780;17.194;2023-07-13T03:13:34;22.80;99.90
34877;DHT22;21086;44.780;17.194;2023-07-13T03:16:01;22.80;99.90
34877;DHT22;21086;44.780;17.194;2023-07-13T03:18:29;22.80;99.90
34877;DHT22;21086;44.780;17.194;2023-07-13T03:20:57;22.70;99.90
34877;DHT22;21086;44.780;17.194;2023-07-13T03:23:24;22.80;99.90
34877;DHT22;21086;44.780;17.194;2023-07-13T03:26:08;22.90;99.90
34877;DHT22;21086;44.780;17.194;2023-07-13T03:28:37;22.80;99.90
34877;DHT22;21086;44.780;17.194;2023-07-13T03:31:13;22.70;99.90
34877;DHT22;21086;44.780;17.194;2023-07-13T03:33:41;22.70;99.90
34877;DHT22;21086;44.780;17.194;2023-07-13T03:36:12;22.70;99.90
34877;DHT22;21086;44.780;17.194;2023-07-13T03:38:39;22.70;99.90
34877;DHT22;21086;44.780;17.194;2023-07-13T03:41:06;22.70;99.90
34877;DHT22;21086;44.780;17.194;2023-07-13T03:43:33;22.70;99.90
34877;DHT22;21086;44.780;17.194;2023-07-13T03:46:01;22.70;99.90
34877;DHT22;21086;44.780;17.194;2023-07-13T03:48:28;22.70;99.90
34877;DHT22;21086;44.780;17.194;2023-07-13T03:50:55;22.80;99.90
34877;DHT22;21086;44.780;17.194;2023-07-13T03:53:22;22.80;99.90
34877;DHT22;21086;44.780;17.194;2023-07-13T03:55:49;23.00;99.90
34877;DHT22;21086;44.780;17.194;2023-07-13T03:58:28;23.00;99.90
34877;DHT22;21086;44.780;17.194;2023-07-13T04:00:57;23.20;99.90
34877;DHT22;21086;44.780;17.194;2023-07-13T04:03:25;23.40;99.90
34877;DHT22;21086;44.780;17.194;2023-07-13T04:05:55;23.40;99.90
34877;DHT22;21086;44.780;17.194;2023-07-13T04:08:28;23.40;99.90
34877;DHT22;21086;44.780;17.194;2023-07-13T04:10:56;23.50;99.90
34877;DHT22;21086;44.780;17.194;2023-07-13T04:13:24;23.50;99.90
34877;DHT22;21086;44.780;17.194;2023-07-13T04:15:52;23.40;99.90
34877;DHT22;21086;44.780;17.194;2023-07-13T04:18:20;23.30;99.90
34877;DHT22;21086;44.780;17.194;2023-07-13T04:20:49;23.50;99.90
34877;DHT22;21086;44.780;17.194;2023-07-13T04:23:17;23.60;99.90
34877;DHT22;21086;44.780;17.194;2023-07-13T04:25:48;23.60;99.90
34877;DHT22;21086;44.780;17.194;2023-07-13T04:28:23;23.80;99.90
34877;DHT22;21086;44.780;17.194;2023-07-13T04:30:51;23.80;99.90
34877;DHT22;21086;44.780;17.194;2023-07-13T04:33:18;24.00;99.90
34877;DHT22;21086;44.780;17.194;2023-07-13T04:35:53;24.20;99.90
34877;DHT22;21086;44.780;17.194;2023-07-13T04:38:26;24.20;99.90
34877;DHT22;21086;44.780;17.194;2023-07-13T04:40:59;24.40;99.90
34877;DHT22;21086;44.780;17.194;2023-07-13T04:43:28;24.50;99.90
34877;DHT22;21086;44.780;17.194;2023-07-13T04:45:55;24.60;99.90
34877;DHT22;21086;44.780;17.194;2023-07-13T04:48:23;24.70;99.90
34877;DHT22;21086;44.780;17.194;2023-07-13T04:50:55;24.90;99.90
34877;DHT22;21086;44.780;17.194;2023-07-13T04:53:24;24.90;99.90
34877;DHT22;21086;44.780;17.194;2023-07-13T04:55:51;25.10;99.90
34877;DHT22;21086;44.780;17.194;2023-07-13T04:58:19;25.20;99.90
34877;DHT22;21086;44.780;17.194;2023-07-13T05:00:45;25.30;99.90
34877;DHT22;21086;44.780;17.194;2023-07-13T05:03:13;25.50;99.90
34877;DHT22;21086;44.780;17.194;2023-07-13T05:05:40;25.50;99.90
34877;DHT22;21086;44.780;17.194;2023-07-13T05:08:07;25.80;99.90
34877;DHT22;21086;44.780;17.194;2023-07-13T05:10:35;25.90;99.90
34877;DHT22;21086;44.780;17.194;2023-07-13T05:13:02;26.10;99.90
34877;DHT22;21086;44.780;17.194;2023-07-13T05:15:29;26.30;99.90
34877;DHT22;21086;44.780;17.194;2023-07-13T05:17:57;26.30;99.90
34877;DHT22;21086;44.780;17.194;2023-07-13T05:20:24;26.40;99.90
34877;DHT22;21086;44.780;17.194;2023-07-13T05:22:51;26.40;99.90
34877;DHT22;21086;44.780;17.194;2023-07-13T05:25:18;26.30;99.90
34877;DHT22;21086;44.780;17.194;2023-07-13T05:27:45;26.40;99.90
34877;DHT22;21086;44.780;17.194;2023-07-13T05:30:14;26.40;99.90
34877;DHT22;21086;44.780;17.194;2023-07-13T05:32:41;26.40;99.90
34877;DHT22;21086;44.780;17.194;2023-07-13T05:35:08;26.20;99.90
34877;DHT22;21086;44.780;17.194;2023-07-13T05:37:37;26.10;99.90
34877;DHT22;21086;44.780;17.194;2023-07-13T05:40:05;26.10;99.90
34877;DHT22;21086;44.780;17.194;2023-07-13T05:42:33;26.00;99.90
34877;DHT22;21086;44.780;17.194;2023-07-13T05:45:01;26.20;99.90
34877;DHT22;21086;44.780;17.194;2023-07-13T05:47:28;26.30;99.90
34877;DHT22;21086;44.780;17.194;2023-07-13T05:49:55;26.50;99.90
34877;DHT22;21086;44.780;17.194;2023-07-13T05:52:22;26.70;99.90
34877;DHT22;21086;44.780;17.194;2023-07-13T05:54:49;26.90;99.90
34877;DHT22;21086;44.780;17.194;2023-07-13T05:57:17;27.10;99.90
34877;DHT22;21086;44.780;17.194;2023-07-13T05:59:44;27.20;99.90
34877;DHT22;21086;44.780;17.194;2023-07-13T06:02:11;27.30;99.90
34877;DHT22;21086;44.780;17.194;2023-07-13T06:04:38;27.40;99.90
34877;DHT22;21086;44.780;17.194;2023-07-13T06:07:05;27.50;99.90
34877;DHT22;21086;44.780;17.194;2023-07-13T06:09:32;27.50;99.90
34877;DHT22;21086;44.780;17.194;2023-07-13T06:11:59;27.70;99.90
34877;DHT22;21086;44.780;17.194;2023-07-13T06:14:27;27.70;99.90
34877;DHT22;21086;44.780;17.194;2023-07-13T06:16:54;27.90;99.90
34877;DHT22;21086;44.780;17.194;2023-07-13T06:19:21;27.90;99.90
34877;DHT22;21086;44.780;17.194;2023-07-13T06:21:48;28.10;99.90
34877;DHT22;21086;44.780;17.194;2023-07-13T06:24:15;28.20;99.90
34877;DHT22;21086;44.780;17.194;2023-07-13T06:26:42;28.30;99.90
34877;DHT22;21086;44.780;17.194;2023-07-13T06:29:10;28.40;99.90
34877;DHT22;21086;44.780;17.194;2023-07-13T06:31:37;28.40;99.90
34877;DHT22;21086;44.780;17.194;2023-07-13T06:34:04;28.40;99.90
34877;DHT22;21086;44.780;17.194;2023-07-13T06:36:31;28.30;99.90
34877;DHT22;21086;44.780;17.194;2023-07-13T06:38:58;28.40;99.90
34877;DHT22;21086;44.780;17.194;2023-07-13T06:41:25;28.40;99.90
34877;DHT22;21086;44.780;17.194;2023-07-13T06:43:53;28.30;99.90
34877;DHT22;21086;44.780;17.194;2023-07-13T06:46:22;28.30;99.90
34877;DHT22;21086;44.780;17.194;2023-07-13T06:48:49;28.30;99.90
34877;DHT22;21086;44.780;17.194;2023-07-13T06:51:17;28.40;99.90
34877;DHT22;21086;44.780;17.194;2023-07-13T06:53:44;28.40;99.90
34877;DHT22;21086;44.780;17.194;2023-07-13T06:56:11;28.30;99.90
34877;DHT22;21086;44.780;17.194;2023-07-13T06:58:38;28.40;99.90
34877;DHT22;21086;44.780;17.194;2023-07-13T07:01:05;28.60;99.90
34877;DHT22;21086;44.780;17.194;2023-07-13T07:03:34;28.70;99.90
34877;DHT22;21086;44.780;17.194;2023-07-13T07:06:15;28.80;99.90
34877;DHT22;21086;44.780;17.194;2023-07-13T07:08:43;28.90;99.90
34877;DHT22;21086;44.780;17.194;2023-07-13T07:11:13;29.00;99.90
34877;DHT22;21086;44.780;17.194;2023-07-13T07:13:41;29.10;99.90
34877;DHT22;21086;44.780;17.194;2023-07-13T07:16:09;29.20;99.90
34877;DHT22;21086;44.780;17.194;2023-07-13T07:18:36;29.30;99.90
34877;DHT22;21086;44.780;17.194;2023-07-13T07:21:03;29.30;99.90
34877;DHT22;21086;44.780;17.194;2023-07-13T07:23:31;29.40;99.90
34877;DHT22;21086;44.780;17.194;2023-07-13T07:25:58;29.40;99.90
34877;DHT22;21086;44.780;17.194;2023-07-13T07:28:26;29.30;99.90
34877;DHT22;21086;44.780;17.194;2023-07-13T07:31:11;29.20;99.90
34877;DHT22;21086;44.780;17.194;2023-07-13T07:33:42;29.20;99.90
34877;DHT22;21086;44.780;17.194;2023-07-13T07:36:10;29.10;99.90
34877;DHT22;21086;44.780;17.194;2023-07-13T07:38:39;29.20;99.90
34877;DHT22;21086;44.780;17.194;2023-07-13T07:41:06;29.20;99.90
34877;DHT22;21086;44.780;17.194;2023-07-13T07:43:37;29.30;99.90
34877;DHT22;21086;44.780;17.194;2023-07-13T07:46:05;29.30;99.90
34877;DHT22;21086;44.780;17.194;2023-07-13T07:48:32;29.40;99.90
34877;DHT22;21086;44.780;17.194;2023-07-13T07:50:59;29.50;99.90
34877;DHT22;21086;44.780;17.194;2023-07-13T07:53:26;29.60;99.90
34877;DHT22;21086;44.780;17.194;2023-07-13T07:55:53;29.80;99.90
34877;DHT22;21086;44.780;17.194;2023-07-13T07:58:23;29.90;99.90
34877;DHT22;21086;44.780;17.194;2023-07-13T08:00:53;30.00;99.90
34877;DHT22;21086;44.780;17.194;2023-07-13T08:03:23;30.00;99.90
34877;DHT22;21086;44.780;17.194;2023-07-13T08:05:53;29.90;99.90
34877;DHT22;21086;44.780;17.194;2023-07-13T08:08:24;29.90;99.90
34877;DHT22;21086;44.780;17.194;2023-07-13T08:10:52;30.00;99.90
34877;DHT22;21086;44.780;17.194;2023-07-13T08:13:25;30.10;99.90
34877;DHT22;21086;44.780;17.194;2023-07-13T08:15:52;30.20;99.90
34877;DHT22;21086;44.780;17.194;2023-07-13T08:18:19;30.40;99.90
34877;DHT22;21086;44.780;17.194;2023-07-13T08:20:47;30.50;99.90
34877;DHT22;21086;44.780;17.194;2023-07-13T08:23:14;30.40;99.90
34877;DHT22;21086;44.780;17.194;2023-07-13T08:25:53;30.30;99.90
34877;DHT22;21086;44.780;17.194;2023-07-13T08:28:21;30.60;99.90
34877;DHT22;21086;44.780;17.194;2023-07-13T08:30:49;30.60;99.90
34877;DHT22;21086;44.780;17.194;2023-07-13T08:33:17;30.60;99.90
34877;DHT22;21086;44.780;17.194;2023-07-13T08:35:48;30.60;99.90
34877;DHT22;21086;44.780;17.194;2023-07-13T08:38:17;30.70;99.90
34877;DHT22;21086;44.780;17.194;2023-07-13T08:40:45;30.90;99.90
34877;DHT22;21086;44.780;17.194;2023-07-13T08:43:17;31.00;99.90
34877;DHT22;21086;44.780;17.194;2023-07-13T08:45:49;31.10;99.90
34877;DHT22;21086;44.780;17.194;2023-07-13T08:48:26;31.30;99.90
34877;DHT22;21086;44.780;17.194;2023-07-13T08:54:51;31.70;99.90
34877;DHT22;21086;44.780;17.194;2023-07-13T08:57:00;31.90;99.90
34877;DHT22;21086;44.780;17.194;2023-07-13T08:59:31;32.20;99.90
34877;DHT22;21086;44.780;17.194;2023-07-13T09:04:50;32.70;99.90
34877;DHT22;21086;44.780;17.194;2023-07-13T09:07:29;32.90;99.90
34877;DHT22;21086;44.780;17.194;2023-07-13T09:10:19;33.00;99.90
34877;DHT22;21086;44.780;17.194;2023-07-13T09:15:39;33.00;99.90
34877;DHT22;21086;44.780;17.194;2023-07-13T09:20:49;33.20;99.90
34877;DHT22;21086;44.780;17.194;2023-07-13T09:23:22;33.50;99.90
34877;DHT22;21086;44.780;17.194;2023-07-13T09:25:54;33.70;99.90
34877;DHT22;21086;44.780;17.194;2023-07-13T09:28:28;33.80;99.90
34877;DHT22;21086;44.780;17.194;2023-07-13T09:31:04;33.90;99.90
34877;DHT22;21086;44.780;17.194;2023-07-13T09:33:32;34.10;99.90
34877;DHT22;21086;44.780;17.194;2023-07-13T09:39:26;34.10;99.90
34877;DHT22;21086;44.780;17.194;2023-07-13T09:42:03;33.90;99.90
34877;DHT22;21086;44.780;17.194;2023-07-13T09:44:39;33.90;99.90
34877;DHT22;21086;44.780;17.194;2023-07-13T09:47:26;34.00;99.90
34877;DHT22;21086;44.780;17.194;2023-07-13T09:49:59;34.10;99.90
34877;DHT22;21086;44.780;17.194;2023-07-13T09:52:41;34.10;99.90
34877;DHT22;21086;44.780;17.194;2023-07-13T09:57:53;34.30;99.90
34877;DHT22;21086;44.780;17.194;2023-07-13T10:00:26;34.00;99.90
34877;DHT22;21086;44.780;17.194;2023-07-13T10:03:05;34.00;99.90
34877;DHT22;21086;44.780;17.194;2023-07-13T10:05:41;34.30;99.90
34877;DHT22;21086;44.780;17.194;2023-07-13T10:08:26;34.50;99.90
34877;DHT22;21086;44.780;17.194;2023-07-13T10:11:20;34.30;99.90
34877;DHT22;21086;44.780;17.194;2023-07-13T10:13:58;34.30;99.90
34877;DHT22;21086;44.780;17.194;2023-07-13T10:16:30;34.50;99.90
34877;DHT22;21086;44.780;17.194;2023-07-13T10:19:17;35.00;99.90
34877;DHT22;21086;44.780;17.194;2023-07-13T10:21:56;35.10;99.90
34877;DHT22;21086;44.780;17.194;2023-07-13T10:24:35;35.00;99.90
34877;DHT22;21086;44.780;17.194;2023-07-13T10:27:19;35.00;99.90
34877;DHT22;21086;44.780;17.194;2023-07-13T10:30:06;35.00;99.90
34877;DHT22;21086;44.780;17.194;2023-07-13T10:32:37;35.20;99.90
34877;DHT22;21086;44.780;17.194;2023-07-13T10:35:05;35.20;99.90
34877;DHT22;21086;44.780;17.194;2023-07-13T10:38:24;35.50;99.90
34877;DHT22;21086;44.780;17.194;2023-07-13T10:40:41;35.80;99.90
34877;DHT22;21086;44.780;17.194;2023-07-13T10:43:36;36.20;99.90
34877;DHT22;21086;44.780;17.194;2023-07-13T10:46:07;36.30;99.90
34877;DHT22;21086;44.780;17.194;2023-07-13T10:48:36;36.50;99.90
34877;DHT22;21086;44.780;17.194;2023-07-13T10:51:05;36.60;99.90
34877;DHT22;21086;44.780;17.194;2023-07-13T10:53:35;36.70;99.90
34877;DHT22;21086;44.780;17.194;2023-07-13T10:56:24;36.60;99.90
34877;DHT22;21086;44.780;17.194;2023-07-13T10:59:15;36.40;99.90
34877;DHT22;21086;44.780;17.194;2023-07-13T11:01:57;36.40;99.90
34877;DHT22;21086;44.780;17.194;2023-07-13T11:04:27;36.20;99.90
34877;DHT22;21086;44.780;17.194;2023-07-13T11:06:59;36.10;99.90
34877;DHT22;21086;44.780;17.194;2023-07-13T11:09:41;36.20;99.90
34877;DHT22;21086;44.780;17.194;2023-07-13T11:15:29;36.00;99.90
34877;DHT22;21086;44.780;17.194;2023-07-13T11:17:57;36.00;99.90
34877;DHT22;21086;44.780;17.194;2023-07-13T11:20:34;36.20;99.90
34877;DHT22;21086;44.780;17.194;2023-07-13T11:25:44;36.10;99.90
34877;DHT22;21086;44.780;17.194;2023-07-13T11:36:04;37.20;99.90
34877;DHT22;21086;44.780;17.194;2023-07-13T11:38:49;37.30;99.90
34877;DHT22;21086;44.780;17.194;2023-07-13T11:41:30;37.00;99.90
34877;DHT22;21086;44.780;17.194;2023-07-13T11:44:12;36.90;99.90
34877;DHT22;21086;44.780;17.194;2023-07-13T11:46:45;36.70;99.90
34877;DHT22;21086;44.780;17.194;2023-07-13T11:49:17;36.20;99.90
34877;DHT22;21086;44.780;17.194;2023-07-13T11:51:45;35.70;99.90
34877;DHT22;21086;44.780;17.194;2023-07-13T11:59:44;34.70;99.90
34877;DHT22;21086;44.780;17.194;2023-07-13T12:02:18;34.60;99.90
34877;DHT22;21086;44.780;17.194;2023-07-13T12:04:50;34.50;99.90
34877;DHT22;21086;44.780;17.194;2023-07-13T12:07:19;34.20;99.90
34877;DHT22;21086;44.780;17.194;2023-07-13T12:09:46;34.30;99.90
34877;DHT22;21086;44.780;17.194;2023-07-13T12:12:18;34.40;99.90
34877;DHT22;21086;44.780;17.194;2023-07-13T12:14:45;34.70;99.90
34877;DHT22;21086;44.780;17.194;2023-07-13T12:17:19;35.10;99.90
34877;DHT22;21086;44.780;17.194;2023-07-13T12:19:51;35.40;99.90
34877;DHT22;21086;44.780;17.194;2023-07-13T12:22:20;35.60;99.90
34877;DHT22;21086;44.780;17.194;2023-07-13T12:24:47;35.80;99.90
34877;DHT22;21086;44.780;17.194;2023-07-13T12:27:24;36.10;99.90
34877;DHT22;21086;44.780;17.194;2023-07-13T12:30:01;36.10;99.90
34877;DHT22;21086;44.780;17.194;2023-07-13T12:32:28;35.80;99.90
34877;DHT22;21086;44.780;17.194;2023-07-13T12:35:15;35.70;99.90
34877;DHT22;21086;44.780;17.194;2023-07-13T12:37:46;35.30;99.90
34877;DHT22;21086;44.780;17.194;2023-07-13T12:40:16;35.10;99.90
34877;DHT22;21086;44.780;17.194;2023-07-13T12:42:50;34.80;99.90
34877;DHT22;21086;44.780;17.194;2023-07-13T12:45:24;34.60;99.90
34877;DHT22;21086;44.780;17.194;2023-07-13T12:48:10;34.40;99.90
34877;DHT22;21086;44.780;17.194;2023-07-13T12:50:42;34.10;99.90
34877;DHT22;21086;44.780;17.194;2023-07-13T12:53:15;34.10;99.90
34877;DHT22;21086;44.780;17.194;2023-07-13T12:55:51;33.90;99.90
34877;DHT22;21086;44.780;17.194;2023-07-13T12:58:40;34.00;99.90
34877;DHT22;21086;44.780;17.194;2023-07-13T13:01:14;33.80;99.90
34877;DHT22;21086;44.780;17.194;2023-07-13T13:03:51;33.50;99.90
34877;DHT22;21086;44.780;17.194;2023-07-13T13:06:27;33.40;99.90
34877;DHT22;21086;44.780;17.194;2023-07-13T13:08:57;33.20;99.90
34877;DHT22;21086;44.780;17.194;2023-07-13T13:11:30;32.90;99.90
34877;DHT22;21086;44.780;17.194;2023-07-13T13:13:57;32.60;99.90
34877;DHT22;21086;44.780;17.194;2023-07-13T13:18:54;32.50;99.90
34877;DHT22;21086;44.780;17.194;2023-07-13T13:21:24;32.50;99.90
34877;DHT22;21086;44.780;17.194;2023-07-13T13:23:52;32.70;99.90
34877;DHT22;21086;44.780;17.194;2023-07-13T13:26:22;32.90;99.90
34877;DHT22;21086;44.780;17.194;2023-07-13T13:28:49;33.10;99.90
34877;DHT22;21086;44.780;17.194;2023-07-13T13:31:16;33.40;99.90
34877;DHT22;21086;44.780;17.194;2023-07-13T13:33:45;33.50;99.90
34877;DHT22;21086;44.780;17.194;2023-07-13T13:36:18;33.80;99.90
34877;DHT22;21086;44.780;17.194;2023-07-13T13:38:47;34.00;99.90
34877;DHT22;21086;44.780;17.194;2023-07-13T13:41:14;34.00;99.90
34877;DHT22;21086;44.780;17.194;2023-07-13T13:43:42;33.70;99.90
34877;DHT22;21086;44.780;17.194;2023-07-13T13:46:21;33.20;99.90
34877;DHT22;21086;44.780;17.194;2023-07-13T13:48:49;32.80;99.90
34877;DHT22;21086;44.780;17.194;2023-07-13T13:51:22;32.60;99.90
34877;DHT22;21086;44.780;17.194;2023-07-13T13:53:50;32.40;99.90
34877;DHT22;21086;44.780;17.194;2023-07-13T13:56:19;32.30;99.90
34877;DHT22;21086;44.780;17.194;2023-07-13T13:58:46;32.20;99.90
34877;DHT22;21086;44.780;17.194;2023-07-13T14:01:18;32.30;99.90
34877;DHT22;21086;44.780;17.194;2023-07-13T14:03:46;32.20;99.90
34877;DHT22;21086;44.780;17.194;2023-07-13T14:06:16;32.00;99.90
34877;DHT22;21086;44.780;17.194;2023-07-13T14:08:43;32.00;99.90
34877;DHT22;21086;44.780;17.194;2023-07-13T14:11:17;32.00;99.90
34877;DHT22;21086;44.780;17.194;2023-07-13T14:13:49;31.90;99.90
34877;DHT22;21086;44.780;17.194;2023-07-13T14:16:19;31.90;99.90
34877;DHT22;21086;44.780;17.194;2023-07-13T14:18:48;31.60;99.90
34877;DHT22;21086;44.780;17.194;2023-07-13T14:21:18;31.50;99.90
34877;DHT22;21086;44.780;17.194;2023-07-13T14:23:46;31.30;99.90
34877;DHT22;21086;44.780;17.194;2023-07-13T14:26:36;31.10;99.90
34877;DHT22;21086;44.780;17.194;2023-07-13T14:29:12;31.10;99.90
34877;DHT22;21086;44.780;17.194;2023-07-13T14:31:40;30.90;99.90
34877;DHT22;21086;44.780;17.194;2023-07-13T14:34:11;30.90;99.90
34877;DHT22;21086;44.780;17.194;2023-07-13T14:36:43;30.90;99.90
34877;DHT22;21086;44.780;17.194;2023-07-13T14:39:15;31.00;99.90
34877;DHT22;21086;44.780;17.194;2023-07-13T14:41:44;31.00;99.90
34877;DHT22;21086;44.780;17.194;2023-07-13T14:44:16;30.90;99.90
34877;DHT22;21086;44.780;17.194;2023-07-13T14:46:46;30.90;99.90
34877;DHT22;21086;44.780;17.194;2023-07-13T14:51:47;30.80;99.90
34877;DHT22;21086;44.780;17.194;2023-07-13T14:54:17;30.80;99.90
34877;DHT22;21086;44.780;17.194;2023-07-13T14:56:44;31.10;99.90
34877;DHT22;21086;44.780;17.194;2023-07-13T14:59:11;30.70;99.90
34877;DHT22;21086;44.780;17.194;2023-07-13T15:01:39;30.60;99.90
34877;DHT22;21086;44.780;17.194;2023-07-13T15:04:07;30.50;99.90
34877;DHT22;21086;44.780;17.194;2023-07-13T15:07:01;30.50;99.90
34877;DHT22;21086;44.780;17.194;2023-07-13T15:09:29;30.60;99.90
34877;DHT22;21086;44.780;17.194;2023-07-13T15:11:57;30.60;99.90
34877;DHT22;21086;44.780;17.194;2023-07-13T15:14:27;30.60;99.90
34877;DHT22;21086;44.780;17.194;2023-07-13T15:16:57;30.60;99.90
34877;DHT22;21086;44.780;17.194;2023-07-13T15:19:25;30.50;99.90
34877;DHT22;21086;44.780;17.194;2023-07-13T15:21:55;30.40;99.90
34877;DHT22;21086;44.780;17.194;2023-07-13T15:24:25;30.40;99.90
34877;DHT22;21086;44.780;17.194;2023-07-13T15:26:52;30.40;99.90
34877;DHT22;21086;44.780;17.194;2023-07-13T15:29:19;30.60;99.90
34877;DHT22;21086;44.780;17.194;2023-07-13T15:31:46;30.70;99.90
34877;DHT22;21086;44.780;17.194;2023-07-13T15:34:23;31.30;99.90
34877;DHT22;21086;44.780;17.194;2023-07-13T15:36:51;32.40;99.90
34877;DHT22;21086;44.780;17.194;2023-07-13T15:39:19;34.00;99.90
34877;DHT22;21086;44.780;17.194;2023-07-13T15:41:46;34.80;99.90
34877;DHT22;21086;44.780;17.194;2023-07-13T15:44:31;35.30;99.90
34877;DHT22;21086;44.780;17.194;2023-07-13T15:46:58;34.90;99.90
34877;DHT22;21086;44.780;17.194;2023-07-13T15:49:30;35.00;99.90
34877;DHT22;21086;44.780;17.194;2023-07-13T15:51:58;34.80;99.90
34877;DHT22;21086;44.780;17.194;2023-07-13T15:54:29;34.90;99.90
34877;DHT22;21086;44.780;17.194;2023-07-13T15:57:01;35.80;99.90
34877;DHT22;21086;44.780;17.194;2023-07-13T15:59:28;38.10;99.90
34877;DHT22;21086;44.780;17.194;2023-07-13T16:01:56;41.20;99.90
34877;DHT22;21086;44.780;17.194;2023-07-13T16:04:23;43.90;99.90
34877;DHT22;21086;44.780;17.194;2023-07-13T16:06:50;45.90;99.90
34877;DHT22;21086;44.780;17.194;2023-07-13T16:09:20;45.30;99.90
34877;DHT22;21086;44.780;17.194;2023-07-13T16:11:49;43.40;99.90
34877;DHT22;21086;44.780;17.194;2023-07-13T16:14:18;43.00;99.90
34877;DHT22;21086;44.780;17.194;2023-07-13T16:16:47;43.00;99.90
34877;DHT22;21086;44.780;17.194;2023-07-13T16:19:16;43.60;99.90